Time;durP1;ratioP1;P1;durP2;ratioP2;P2;SDS_P1;SDS_P2;PMS_P1;PMS_P2;Temp;Humidity;BMP_temperature;BMP_pressure;BME280_temperature;BME280_humidity;BME280_pressure;Samples;Min_cycle;Max_cycle;Signal;HPM_P1;HPM_P2
2022/01/09 00:00:30;;;;;;;23.98;4.88;;;;;;;5.56;100.00;99032.19;5065813;28;20163;-70
2022/01/09 00:02:59;;;;;;;36.42;7.03;;;;;;;5.59;100.00;99042.66;5065437;28;20190;-70
2022/01/09 00:05:29;;;;;;;22.45;4.72;;;;;;;5.66;100.00;99051.19;5063508;28;20110;-71
2022/01/09 00:07:57;;;;;;;37.22;6.57;;;;;;;5.63;100.00;99043.38;5065177;28;20496;-71
2022/01/09 00:10:27;;;;;;;27.98;5.30;;;;;;;5.63;100.00;99066.34;5067171;28;20059;-70
2022/01/09 00:12:54;;;;;;;24.23;5.57;;;;;;;5.57;100.00;99057.72;5065874;28;20053;-70
2022/01/09 00:15:23;;;;;;;25.95;5.28;;;;;;;5.60;100.00;99077.91;5066355;28;20050;-72
2022/01/09 00:17:50;;;;;;;25.60;4.82;;;;;;;5.59;100.00;99074.41;5063890;28;20056;-71
2022/01/09 00:20:18;;;;;;;28.85;5.20;;;;;;;5.59;100.00;99082.34;5064605;28;20115;-71
2022/01/09 00:22:50;;;;;;;30.95;6.00;;;;;;;5.58;100.00;99079.75;5066805;28;20044;-71
2022/01/09 00:25:42;;;;;;;22.70;5.53;;;;;;;5.59;100.00;99089.44;5066619;28;20123;-71
2022/01/09 00:28:10;;;;;;;34.00;6.50;;;;;;;5.62;100.00;99097.25;5066469;28;20098;-73
2022/01/09 00:30:38;;;;;;;27.70;6.38;;;;;;;5.65;100.00;99105.03;5065139;28;20301;-74
2022/01/09 00:36:17;;;;;;;28.30;4.90;;;;;;;5.66;100.00;99124.44;5068459;28;20062;-69
2022/01/09 00:47:33;;;;;;;30.77;5.80;;;;;;;5.67;100.00;99145.56;5065385;28;20051;-69
2022/01/09 00:56:54;;;;;;;30.90;6.30;;;;;;;5.58;100.00;99151.19;5065353;28;20190;-69
2022/01/09 00:59:59;;;;;;;28.45;6.07;;;;;;;5.60;100.00;99147.59;5064972;28;20098;-69
2022/01/09 01:02:58;;;;;;;29.75;6.88;;;;;;;5.60;100.00;99158.16;5048212;28;20543;-70
2022/01/09 01:05:38;;;;;;;32.60;7.72;;;;;;;5.57;100.00;99163.56;5018682;28;20040;-70
2022/01/09 01:11:50;;;;;;;32.28;5.32;;;;;;;5.58;100.00;99190.88;5064693;28;20431;-70
2022/01/09 01:15:03;;;;;;;21.73;5.07;;;;;;;5.57;100.00;99190.03;5068459;28;20044;-70
2022/01/09 01:17:48;;;;;;;17.00;5.25;;;;;;;5.49;100.00;99200.03;5055946;28;20371;-69
2022/01/09 01:20:49;;;;;;;24.17;5.18;;;;;;;5.47;100.00;99201.88;5069951;28;20059;-70
2022/01/09 01:23:36;;;;;;;25.90;5.82;;;;;;;5.51;100.00;99205.28;5069760;28;20455;-70
2022/01/09 01:32:04;;;;;;;22.40;5.30;;;;;;;5.52;100.00;99229.03;5067180;28;20070;-70
2022/01/09 01:34:36;;;;;;;30.90;7.90;;;;;;;5.47;100.00;99240.72;5050819;28;20073;-74
2022/01/09 01:37:04;;;;;;;25.38;14.85;;;;;;;5.49;100.00;99239.72;5068609;28;20162;-75
2022/01/09 01:39:32;;;;;;;34.88;9.60;;;;;;;5.47;100.00;99251.28;5066355;28;20617;-74
2022/01/09 01:41:59;;;;;;;27.25;5.82;;;;;;;5.43;100.00;99243.47;5069417;28;20048;-74
2022/01/09 01:44:40;;;;;;;17.27;6.13;;;;;;;5.41;100.00;99236.47;5066152;28;20430;-75
2022/01/09 01:47:09;;;;;;;20.25;5.05;;;;;;;5.37;100.00;99254.25;5068510;28;20053;-74
2022/01/09 01:49:37;;;;;;;19.15;4.57;;;;;;;5.41;100.00;99269.13;5067286;28;20044;-73
2022/01/09 01:52:06;;;;;;;16.02;4.45;;;;;;;5.41;100.00;99274.41;5070054;28;20131;-74
2022/01/09 01:54:34;;;;;;;18.85;4.43;;;;;;;5.33;100.00;99275.56;5063679;28;20135;-74
2022/01/09 01:57:04;;;;;;;24.73;5.38;;;;;;;5.33;100.00;99278.22;5067203;28;20072;-74
2022/01/09 01:59:32;;;;;;;20.85;4.20;;;;;;;5.37;100.00;99291.28;5067797;28;20076;-74
2022/01/09 02:02:01;;;;;;;17.48;4.40;;;;;;;5.35;100.00;99300.22;5064082;28;20062;-73
2022/01/09 02:04:29;;;;;;;20.23;3.60;;;;;;;5.34;100.00;99298.47;5069259;28;20557;-74
2022/01/09 02:07:00;;;;;;;20.85;4.70;;;;;;;5.30;100.00;99304.78;5069896;28;20083;-74
2022/01/09 02:09:31;;;;;;;20.15;4.80;;;;;;;5.31;100.00;99303.84;5068442;28;20060;-69
2022/01/09 02:12:03;;;;;;;38.38;5.30;;;;;;;5.34;100.00;99311.69;5040142;28;20604;-69
2022/01/09 02:14:35;;;;;;;24.60;4.97;;;;;;;5.23;100.00;99325.28;5068654;28;20090;-69
2022/01/09 02:17:16;;;;;;;17.67;3.67;;;;;;;5.25;100.00;99326.09;5041596;28;20190;-69
2022/01/09 02:20:04;;;;;;;16.45;4.72;;;;;;;5.20;100.00;99336.84;5066777;28;20052;-70
2022/01/09 02:22:45;;;;;;;15.38;3.55;;;;;;;5.18;100.00;99343.97;5064965;28;20041;-70
2022/01/09 02:25:24;;;;;;;;;;;;;;;5.22;100.00;99353.50;5050178;28;20201;-68
2022/01/09 02:28:06;;;;;;;14.57;4.47;;;;;;;5.22;100.00;99353.50;5064888;28;20005;-70
2022/01/09 02:30:50;;;;;;;15.77;4.50;;;;;;;5.23;100.00;99355.25;5069590;28;20932;-70
2022/01/09 02:36:14;;;;;;;27.55;4.53;;;;;;;5.19;100.00;99365.97;5068640;28;21454;-69
2022/01/09 02:39:03;;;;;;;16.95;3.22;;;;;;;5.21;100.00;99370.31;5048041;28;20466;-69
2022/01/09 02:41:47;;;;;;;16.10;4.13;;;;;;;5.19;100.00;99374.78;5067930;28;20458;-69
2022/01/09 02:44:24;;;;;;;23.88;3.75;;;;;;;5.19;100.00;99384.47;5067181;28;20056;-69
2022/01/09 02:49:45;;;;;;;14.73;4.13;;;;;;;5.13;100.00;99400.56;5068994;28;20117;-69
2022/01/09 02:52:31;;;;;;;14.95;3.28;;;;;;;5.03;100.00;99400.84;5055229;28;20044;-69
2022/01/09 02:55:11;;;;;;;18.90;4.25;;;;;;;5.02;100.00;99415.00;5046940;28;20060;-69
2022/01/09 02:57:43;;;;;;;16.63;4.85;;;;;;;5.01;100.00;99418.53;5054068;28;20535;-69
2022/01/09 03:00:19;;;;;;;12.15;3.30;;;;;;;4.99;100.00;99432.75;5065778;28;20060;-69
2022/01/09 03:02:55;;;;;;;16.10;3.75;;;;;;;4.97;100.00;99426.63;5048664;28;20135;-69
2022/01/09 03:05:30;;;;;;;10.38;3.22;;;;;;;4.89;100.00;99431.28;5066902;28;20503;-69
2022/01/09 03:08:02;;;;;;;13.52;4.03;;;;;;;4.83;100.00;99434.97;5048827;28;20067;-69
2022/01/09 03:10:31;;;;;;;15.85;4.68;;;;;;;4.67;100.00;99438.09;5032463;28;20044;-69
2022/01/09 03:13:07;;;;;;;17.13;3.05;;;;;;;4.75;100.00;99447.56;5048394;28;20116;-69
2022/01/09 03:16:01;;;;;;;15.73;3.33;;;;;;;4.78;100.00;99447.47;5065226;28;20055;-70
2022/01/09 03:18:31;;;;;;;16.92;3.70;;;;;;;4.66;100.00;99464.56;5063583;28;20048;-68
2022/01/09 03:21:02;;;;;;;18.45;3.83;;;;;;;4.63;100.00;99460.25;5062904;28;20395;-70
2022/01/09 03:26:30;;;;;;;17.58;4.70;;;;;;;4.80;100.00;99477.34;5048500;28;20052;-70
2022/01/09 03:28:59;;;;;;;8.35;3.03;;;;;;;4.76;100.00;99484.50;5063034;28;20049;-70
2022/01/09 03:31:28;;;;;;;15.23;3.55;;;;;;;4.74;100.00;99483.69;5049583;28;20076;-70
2022/01/09 03:33:59;;;;;;;21.33;4.72;;;;;;;4.70;100.00;99495.28;5066018;28;20125;-70
2022/01/09 03:36:30;;;;;;;23.25;4.38;;;;;;;4.71;100.00;99501.44;5064802;28;20084;-69
2022/01/09 03:39:15;;;;;;;17.33;3.28;;;;;;;4.71;100.00;99512.84;5067097;28;20048;-70
2022/01/09 03:41:54;;;;;;;14.50;3.60;;;;;;;4.70;100.00;99502.31;5049899;28;20040;-70
2022/01/09 03:44:25;;;;;;;15.63;3.75;;;;;;;4.65;100.00;99502.47;5066548;28;20512;-70
2022/01/09 03:46:57;;;;;;;14.23;3.88;;;;;;;4.65;100.00;99499.84;5065936;28;20181;-68
2022/01/09 03:49:29;;;;;;;10.73;3.00;;;;;;;4.63;100.00;99520.13;5066316;28;20503;-68
2022/01/09 03:52:01;;;;;;;13.15;3.03;;;;;;;4.62;100.00;99516.63;5067018;28;20138;-70
2022/01/09 03:54:31;;;;;;;9.57;2.78;;;;;;;4.64;100.00;99519.22;5047038;28;20085;-68
2022/01/09 03:57:00;;;;;;;16.58;3.33;;;;;;;4.58;100.00;99519.41;5050334;28;20056;-67
2022/01/09 03:59:29;;;;;;;11.02;2.50;;;;;;;4.58;100.00;99533.50;5049179;28;20138;-71
2022/01/09 04:02:03;;;;;;;13.85;3.15;;;;;;;4.57;100.00;99536.19;5065856;28;20070;-71
2022/01/09 04:04:37;;;;;;;11.05;2.45;;;;;;;4.51;100.00;99539.84;5062426;28;20055;-70
2022/01/09 04:07:35;;;;;;;9.85;2.80;;;;;;;4.56;100.00;99537.06;5048862;28;20040;-70
2022/01/09 04:10:09;;;;;;;6.63;2.55;;;;;;;4.43;100.00;99537.41;5067666;28;20076;-70
2022/01/09 04:12:58;;;;;;;17.38;3.85;;;;;;;4.51;100.00;99523.97;5066857;28;20102;-69
2022/01/09 04:15:30;;;;;;;14.52;3.05;;;;;;;4.45;100.00;99545.31;5065882;28;20471;-69
2022/01/09 04:18:02;;;;;;;11.77;2.70;;;;;;;4.35;100.00;99554.38;5065949;28;20052;-69
2022/01/09 04:20:39;;;;;;;11.18;4.13;;;;;;;4.33;100.00;99550.94;5062689;28;20538;-69
2022/01/09 04:23:11;;;;;;;8.30;2.97;;;;;;;4.28;100.00;99549.25;5067371;28;20094;-69
2022/01/09 04:26:01;;;;;;;8.68;3.17;;;;;;;4.24;100.00;99566.09;5046636;28;20453;-69
2022/01/09 04:28:30;;;;;;;17.35;3.03;;;;;;;4.38;100.00;99578.09;5049834;28;20367;-74
2022/01/09 04:31:00;;;;;;;7.93;2.67;;;;;;;4.33;100.00;99561.50;5065798;28;20059;-69
2022/01/09 04:33:31;;;;;;;12.40;3.70;;;;;;;4.27;100.00;99573.97;5065034;28;20183;-69
2022/01/09 04:36:01;;;;;;;8.65;3.20;;;;;;;4.17;100.00;99571.56;5063173;28;20280;-69
2022/01/09 04:38:37;;;;;;;16.42;3.10;;;;;;;4.11;100.00;99591.94;5063564;28;20063;-70
2022/01/09 04:41:10;;;;;;;10.88;3.42;;;;;;;4.22;100.00;99593.44;5055472;28;20085;-69
2022/01/09 04:43:41;;;;;;;13.32;3.58;;;;;;;4.22;100.00;99602.25;5068406;28;20495;-71
2022/01/09 04:46:13;;;;;;;10.13;2.53;;;;;;;4.25;100.00;99603.94;5053353;28;20044;-69
2022/01/09 04:48:42;;;;;;;12.43;3.78;;;;;;;4.26;100.00;99603.91;5070111;28;20385;-70
2022/01/09 04:51:15;;;;;;;11.15;3.55;;;;;;;4.17;100.00;99609.44;5069643;28;20052;-70
2022/01/09 04:53:44;;;;;;;8.85;3.25;;;;;;;4.21;100.00;99616.34;5048287;28;20204;-69
2022/01/09 04:56:18;;;;;;;12.85;3.63;;;;;;;4.26;100.00;99622.38;5069391;28;21488;-69
2022/01/09 04:58:49;;;;;;;16.88;3.63;;;;;;;4.24;100.00;99632.13;5070490;28;20064;-69
2022/01/09 05:01:20;;;;;;;10.82;3.40;;;;;;;4.30;100.00;99624.03;5070425;28;20329;-69
2022/01/09 05:03:51;;;;;;;20.73;3.83;;;;;;;4.35;100.00;99638.91;5067425;28;20484;-69
2022/01/09 05:06:24;;;;;;;14.05;3.47;;;;;;;4.34;100.00;99645.94;5067853;28;20485;-69
2022/01/09 05:08:53;;;;;;;18.52;4.10;;;;;;;4.34;100.00;99638.03;5039072;28;20487;-69
2022/01/09 05:11:30;;;;;;;15.23;3.65;;;;;;;4.28;100.00;99646.13;5058641;28;20073;-69
2022/01/09 05:14:01;;;;;;;12.82;4.40;;;;;;;4.36;100.00;99657.34;5068406;28;20056;-69
2022/01/09 05:16:33;;;;;;;9.55;4.22;;;;;;;4.33;100.00;99651.28;5070521;28;20063;-69
2022/01/09 05:19:07;;;;;;;9.48;3.10;;;;;;;4.35;100.00;99650.34;5067525;28;21616;-69
2022/01/09 05:21:43;;;;;;;14.73;3.50;;;;;;;4.30;100.00;99653.06;5063343;28;20695;-69
2022/01/09 05:24:12;;;;;;;12.32;3.08;;;;;;;4.34;100.00;99668.84;5040154;28;20044;-74
2022/01/09 05:26:41;;;;;;;11.05;4.78;;;;;;;4.45;100.00;99675.59;5068951;28;20165;-74
2022/01/09 05:29:09;;;;;;;12.20;4.63;;;;;;;4.35;100.00;99674.09;5068584;28;20706;-74
2022/01/09 05:31:36;;;;;;;11.90;3.67;;;;;;;4.40;100.00;99690.69;5064836;28;20070;-74
2022/01/09 05:34:04;;;;;;;10.18;3.67;;;;;;;4.31;100.00;99680.38;5069688;28;20048;-74
2022/01/09 05:36:32;;;;;;;15.13;4.50;;;;;;;4.30;100.00;99682.13;5068281;28;20063;-74
2022/01/09 05:39:00;;;;;;;10.23;3.20;;;;;;;4.41;100.00;99686.28;5070277;28;20048;-74
2022/01/09 05:41:28;;;;;;;11.18;3.58;;;;;;;4.42;100.00;99690.66;5068170;28;20087;-74
2022/01/09 05:43:58;;;;;;;15.88;4.40;;;;;;;4.35;100.00;99700.50;5065528;28;20036;-74
2022/01/09 05:46:27;;;;;;;12.25;3.80;;;;;;;4.33;100.00;99699.69;5067439;28;20524;-74
2022/01/09 05:48:55;;;;;;;9.18;2.95;;;;;;;4.39;100.00;99703.94;5070912;28;20055;-74
2022/01/09 05:51:23;;;;;;;14.13;4.13;;;;;;;4.45;100.00;99709.09;5066564;28;20189;-74
2022/01/09 05:53:51;;;;;;;10.75;3.75;;;;;;;4.38;100.00;99705.72;5064413;28;20139;-74
2022/01/09 05:56:19;;;;;;;8.43;3.05;;;;;;;4.36;100.00;99706.66;5069132;28;20048;-74
2022/01/09 05:59:12;;;;;;;12.90;3.25;;;;;;;4.42;100.00;99714.44;5067793;28;20597;-73
2022/01/09 06:01:40;;;;;;;9.77;3.45;;;;;;;4.42;100.00;99715.28;5067283;28;20799;-74
2022/01/09 06:04:08;;;;;;;13.05;3.65;;;;;;;4.41;100.00;99716.22;5063481;28;20051;-75
2022/01/09 06:06:36;;;;;;;12.02;3.10;;;;;;;4.37;100.00;99711.91;5070711;28;20048;-74
2022/01/09 06:09:04;;;;;;;15.45;3.30;;;;;;;4.43;100.00;99729.41;5069717;28;20141;-74
2022/01/09 06:11:32;;;;;;;9.98;3.35;;;;;;;4.36;100.00;99735.72;5069742;28;20079;-69
2022/01/09 06:14:04;;;;;;;15.27;3.67;;;;;;;4.34;100.00;99741.03;5068184;28;20118;-69
2022/01/09 06:16:59;;;;;;;12.07;3.55;;;;;;;4.16;100.00;99738.84;5068055;28;20105;-69
2022/01/09 06:19:38;;;;;;;11.50;4.30;;;;;;;4.15;100.00;99750.28;5070001;28;20085;-69
2022/01/09 06:22:09;;;;;;;15.88;3.80;;;;;;;4.09;100.00;99749.53;5067297;28;20099;-69
2022/01/09 06:25:05;;;;;;;7.93;3.58;;;;;;;4.03;100.00;99744.38;5065757;28;20585;-68
2022/01/09 06:27:36;;;;;;;14.82;4.20;;;;;;;4.02;100.00;99747.06;5049371;28;20052;-67
2022/01/09 06:30:07;;;;;;;14.10;3.97;;;;;;;4.04;100.00;99755.84;5066523;28;20470;-69
2022/01/09 06:33:00;;;;;;;13.80;4.68;;;;;;;4.01;100.00;99758.53;5071430;28;20059;-68
2022/01/09 06:35:29;;;;;;;13.57;3.90;;;;;;;4.04;100.00;99754.06;5068042;28;20052;-67
2022/01/09 06:37:56;;;;;;;13.40;4.35;;;;;;;4.03;100.00;99757.59;5065742;28;20049;-68
2022/01/09 06:40:25;;;;;;;13.68;3.95;;;;;;;3.96;100.00;99756.00;5064980;28;20120;-68
2022/01/09 06:42:53;;;;;;;18.25;4.10;;;;;;;3.92;100.00;99775.44;5066690;28;20164;-67
2022/01/09 06:45:22;;;;;;;19.55;4.25;;;;;;;4.03;100.00;99789.25;5066770;28;20102;-67
2022/01/09 06:47:49;;;;;;;12.63;3.63;;;;;;;3.97;100.00;99799.06;5066000;28;21425;-71
2022/01/09 06:50:19;;;;;;;12.65;4.30;;;;;;;3.84;100.00;99791.44;5067449;28;20048;-71
2022/01/09 06:52:47;;;;;;;10.43;3.35;;;;;;;3.79;100.00;99792.44;5064323;28;20403;-72
2022/01/09 06:55:15;;;;;;;14.43;4.38;;;;;;;3.80;100.00;99795.06;5065444;28;20050;-71
2022/01/09 06:57:43;;;;;;;16.00;4.20;;;;;;;3.83;100.00;99800.28;5067354;28;20552;-72
2022/01/09 07:00:13;;;;;;;11.10;3.28;;;;;;;3.88;100.00;99802.78;5067401;28;20136;-72
2022/01/09 07:02:41;;;;;;;11.95;3.50;;;;;;;3.93;100.00;99808.84;5066216;28;20135;-71
2022/01/09 07:05:10;;;;;;;16.20;4.10;;;;;;;3.98;100.00;99811.38;5065471;28;20077;-71
2022/01/09 07:07:39;;;;;;;15.18;4.10;;;;;;;4.01;100.00;99817.47;5067831;28;20072;-72
2022/01/09 07:10:08;;;;;;;14.65;3.55;;;;;;;3.95;100.00;99822.00;5067823;28;20048;-72
2022/01/09 07:12:37;;;;;;;10.65;3.42;;;;;;;4.01;100.00;99821.88;5066752;28;20052;-72
2022/01/09 07:15:06;;;;;;;11.38;4.22;;;;;;;4.06;100.00;99822.66;5063188;28;20041;-72
2022/01/09 07:17:34;;;;;;;13.38;3.63;;;;;;;4.00;100.00;99821.03;5067349;28;20056;-72
2022/01/09 07:20:02;;;;;;;12.73;3.65;;;;;;;4.00;100.00;99823.66;5064037;28;21406;-72
2022/01/09 07:22:30;;;;;;;18.42;4.88;;;;;;;4.00;100.00;99828.06;5069032;28;20597;-73
2022/01/09 07:25:00;;;;;;;21.48;4.63;;;;;;;4.13;100.00;99834.81;5066694;28;20362;-72
2022/01/09 07:27:29;;;;;;;12.93;4.20;;;;;;;4.16;100.00;99853.25;5067889;28;20086;-71
2022/01/09 07:29:56;;;;;;;13.13;3.85;;;;;;;4.08;100.00;99845.47;5067815;28;20213;-71
2022/01/09 07:32:24;;;;;;;12.52;3.28;;;;;;;4.00;100.00;99850.06;5064258;28;20054;-71
2022/01/09 07:34:53;;;;;;;12.93;3.28;;;;;;;3.99;100.00;99853.59;5068164;28;20044;-71
2022/01/09 07:37:21;;;;;;;14.10;3.92;;;;;;;4.01;100.00;99849.16;5067537;28;20134;-71
2022/01/09 07:39:50;;;;;;;10.75;3.45;;;;;;;3.99;100.00;99861.50;5066105;28;20143;-71
2022/01/09 07:42:19;;;;;;;12.57;3.92;;;;;;;3.95;100.00;99874.81;5065916;28;20820;-71
2022/01/09 07:44:47;;;;;;;7.50;3.30;;;;;;;3.89;100.00;99875.81;5063968;28;20122;-72
2022/01/09 07:47:14;;;;;;;11.15;4.20;;;;;;;3.95;100.00;99872.16;5065006;28;20054;-71
2022/01/09 07:50:09;;;;;;;11.85;3.10;;;;;;;3.95;100.00;99877.44;5067179;28;20446;-71
2022/01/09 07:53:01;;;;;;;14.45;3.50;;;;;;;3.96;100.00;99868.63;5064801;28;20077;-72
2022/01/09 07:55:29;;;;;;;9.48;2.80;;;;;;;3.98;100.00;99874.75;5066002;28;20151;-72
2022/01/09 07:57:59;;;;;;;9.63;3.58;;;;;;;4.01;100.00;99865.00;5062807;28;20344;-72
2022/01/09 08:00:27;;;;;;;13.30;3.08;;;;;;;4.07;100.00;99870.16;5066560;28;20135;-71
2022/01/09 08:02:55;;;;;;;9.75;3.00;;;;;;;4.06;100.00;99878.09;5064438;28;20157;-72
2022/01/09 08:05:23;;;;;;;14.77;3.28;;;;;;;4.08;100.00;99897.41;5064492;28;20039;-71
2022/01/09 08:07:51;;;;;;;15.90;3.70;;;;;;;3.99;100.00;99893.19;5065797;28;20142;-71
2022/01/09 08:10:18;;;;;;;14.85;4.78;;;;;;;4.03;100.00;99894.84;5066075;28;20484;-72
2022/01/09 08:13:12;;;;;;;13.65;4.55;;;;;;;4.11;100.00;99905.28;5061246;28;20059;-71
2022/01/09 08:15:40;;;;;;;12.55;3.28;;;;;;;4.15;100.00;99911.38;5064019;28;20048;-71
2022/01/09 08:18:08;;;;;;;11.57;3.08;;;;;;;4.19;100.00;99915.66;5062950;28;20062;-71
2022/01/09 08:20:36;;;;;;;16.55;4.50;;;;;;;4.30;100.00;99914.53;5064438;28;20075;-72
2022/01/09 08:23:04;;;;;;;11.63;3.72;;;;;;;4.24;100.00;99927.00;5063497;28;20071;-71
2022/01/09 08:25:35;;;;;;;14.75;3.53;;;;;;;4.26;100.00;99926.09;5065676;28;20059;-71
2022/01/09 08:28:03;;;;;;;9.63;3.00;;;;;;;4.33;100.00;99926.84;5065793;28;21654;-71
2022/01/09 08:30:32;;;;;;;12.40;3.50;;;;;;;4.29;100.00;99923.38;5065408;28;20056;-71
2022/01/09 08:33:01;;;;;;;12.93;3.65;;;;;;;4.29;100.00;99919.84;5064638;28;20514;-71
2022/01/09 08:35:29;;;;;;;12.95;3.30;;;;;;;4.30;100.00;99935.66;5066395;28;20090;-71
2022/01/09 08:37:57;;;;;;;10.40;3.35;;;;;;;4.36;100.00;99939.09;5065075;28;20055;-71
2022/01/09 08:40:26;;;;;;;12.88;4.38;;;;;;;4.33;100.00;99950.59;5065415;28;20052;-71
2022/01/09 08:42:54;;;;;;;14.90;3.45;;;;;;;4.32;100.00;99955.91;5065795;28;20054;-71
2022/01/09 08:45:23;;;;;;;13.57;4.82;;;;;;;4.29;100.00;99959.47;5064185;28;20040;-71
2022/01/09 08:47:53;;;;;;;11.75;3.88;;;;;;;4.35;100.00;99964.63;5064786;28;20083;-71
2022/01/09 08:50:21;;;;;;;16.17;3.72;;;;;;;4.30;100.00;99970.00;5063562;28;20052;-71
2022/01/09 08:52:48;;;;;;;8.32;3.08;;;;;;;4.03;100.00;99968.78;5063287;28;20176;-73
2022/01/09 08:55:17;;;;;;;11.88;3.33;;;;;;;3.96;100.00;99974.22;5066660;28;20152;-72
2022/01/09 08:57:45;;;;;;;12.50;3.92;;;;;;;3.93;100.00;99978.66;5064370;28;20067;-71
2022/01/09 09:00:14;;;;;;;8.23;3.22;;;;;;;3.96;100.00;99979.50;5065043;28;20052;-71
2022/01/09 09:02:42;;;;;;;11.27;3.28;;;;;;;4.05;100.00;99974.94;5066064;28;20079;-71
2022/01/09 09:05:11;;;;;;;11.50;3.28;;;;;;;4.04;100.00;99986.38;5064701;28;20041;-71
2022/01/09 09:07:39;;;;;;;13.52;3.70;;;;;;;4.05;100.00;99980.19;5060400;28;20532;-71
2022/01/09 09:10:08;;;;;;;14.88;3.88;;;;;;;4.07;100.00;99988.06;5064719;28;20055;-71
2022/01/09 09:13:01;;;;;;;13.13;4.15;;;;;;;4.07;100.00;99988.06;5063727;28;20503;-71
2022/01/09 09:15:29;;;;;;;9.25;4.18;;;;;;;4.09;100.00;99978.38;5067232;28;20048;-71
2022/01/09 09:17:56;;;;;;;15.75;4.43;;;;;;;4.10;100.00;99982.72;5064429;28;20230;-71
2022/01/09 09:20:27;;;;;;;17.17;4.05;;;;;;;4.16;100.00;99998.47;5064796;28;20109;-72
2022/01/09 09:23:00;;;;;;;18.85;3.75;;;;;;;4.17;100.00;100002.88;5062697;28;20052;-72
2022/01/09 09:25:28;;;;;;;17.98;4.22;;;;;;;4.23;100.00;100001.88;5067507;28;20055;-71
2022/01/09 09:27:56;;;;;;;18.63;4.07;;;;;;;4.35;100.00;100016.59;5067695;28;20044;-71
2022/01/09 09:30:24;;;;;;;16.42;3.83;;;;;;;4.39;100.00;100008.59;5070694;28;20442;-71
2022/01/09 09:32:52;;;;;;;11.25;4.25;;;;;;;4.46;100.00;100015.50;5068730;28;20060;-71
2022/01/09 09:35:20;;;;;;;20.45;4.00;;;;;;;4.58;100.00;100029.34;5069139;28;20055;-68
2022/01/09 09:37:54;;;;;;;19.95;5.18;;;;;;;4.64;100.00;100032.72;5064741;28;20074;-68
2022/01/09 09:40:25;;;;;;;17.80;4.40;;;;;;;4.63;100.00;100043.31;5067984;28;20578;-68
2022/01/09 09:42:59;;;;;;;19.23;4.18;;;;;;;4.60;100.00;100040.78;5052532;28;20048;-68
2022/01/09 09:45:28;;;;;;;13.50;3.58;;;;;;;4.54;100.00;100041.75;5050221;28;20129;-68
2022/01/09 09:47:58;;;;;;;9.68;3.50;;;;;;;4.55;100.00;100045.28;5053160;28;20074;-72
2022/01/09 09:50:26;;;;;;;11.23;3.22;;;;;;;4.60;100.00;100053.97;5064285;28;20052;-72
2022/01/09 09:52:58;;;;;;;14.45;3.42;;;;;;;4.65;100.00;100052.97;5068596;28;20052;-71
2022/01/09 09:55:25;;;;;;;15.23;3.67;;;;;;;4.67;100.00;100060.88;5066237;28;20045;-72
2022/01/09 09:57:53;;;;;;;10.10;3.20;;;;;;;4.54;100.00;100068.16;5069787;28;20048;-72
2022/01/09 10:00:23;;;;;;;12.25;3.22;;;;;;;4.52;100.00;100064.69;5067712;28;20050;-72
2022/01/09 10:02:53;;;;;;;12.23;3.58;;;;;;;4.53;100.00;100050.59;5066883;28;20505;-72
2022/01/09 10:05:23;;;;;;;11.45;3.38;;;;;;;4.54;100.00;100059.38;5067872;28;20510;-72
2022/01/09 10:07:52;;;;;;;16.92;3.40;;;;;;;4.52;100.00;100062.06;5067107;28;20059;-71
2022/01/09 10:10:33;;;;;;;8.38;2.75;;;;;;;4.49;100.00;100063.00;5066112;28;20390;-72
2022/01/09 10:13:09;;;;;;;14.32;3.53;;;;;;;4.58;100.00;100064.59;5067151;28;20056;-72
2022/01/09 10:15:46;;;;;;;16.65;4.05;;;;;;;4.67;100.00;100068.81;5066773;28;20554;-71
2022/01/09 10:18:15;;;;;;;10.68;3.35;;;;;;;4.81;100.00;100073.81;5065210;28;20055;-72
2022/01/09 10:20:43;;;;;;;14.75;3.67;;;;;;;4.78;100.00;100077.38;5066766;28;20056;-72
2022/01/09 10:23:10;;;;;;;12.18;3.50;;;;;;;4.63;100.00;100067.13;5067939;28;20064;-71
2022/01/09 10:25:40;;;;;;;13.55;3.50;;;;;;;4.57;100.00;100080.47;5065946;28;20093;-71
2022/01/09 10:28:12;;;;;;;8.55;3.20;;;;;;;4.53;100.00;100077.00;5065203;28;20281;-70
2022/01/09 10:30:42;;;;;;;19.00;4.22;;;;;;;4.49;100.00;100081.50;5067755;28;20148;-71
2022/01/09 10:33:12;;;;;;;10.52;3.08;;;;;;;4.58;100.00;100079.53;5068583;28;20124;-71
2022/01/09 10:35:41;;;;;;;14.70;3.53;;;;;;;4.72;100.00;100081.94;5064961;28;20044;-75
2022/01/09 10:38:13;;;;;;;14.85;4.32;;;;;;;4.74;100.00;100085.41;5069896;28;20167;-73
2022/01/09 10:41:06;;;;;;;10.63;4.60;;;;;;;4.75;100.00;100085.38;5068275;28;20055;-71
2022/01/09 10:43:39;;;;;;;11.23;4.15;;;;;;;4.74;100.00;100090.72;5066960;28;20063;-71
2022/01/09 10:46:09;;;;;;;11.82;4.15;;;;;;;4.79;100.00;100105.56;5068347;28;20113;-71
2022/01/09 10:48:39;;;;;;;19.23;4.03;;;;;;;4.76;100.00;100097.69;5064556;28;20048;-71
2022/01/09 10:51:13;;;;;;;14.32;3.17;;;;;;;4.62;100.00;100092.69;5067998;28;20546;-71
2022/01/09 10:53:41;;;;;;;;;;;;;;;4.63;100.00;100094.44;5065371;28;20093;-72
2022/01/09 10:56:13;;;;;;;12.27;3.25;;;;;;;4.70;100.00;100102.22;5066919;28;19931;-72
2022/01/09 10:58:43;;;;;;;12.95;3.20;;;;;;;4.80;100.00;100093.19;5065688;28;20070;-72
2022/01/09 11:01:15;;;;;;;10.77;3.10;;;;;;;4.89;100.00;100100.06;5066465;28;21041;-72
2022/01/09 11:03:47;;;;;;;11.85;3.38;;;;;;;4.92;100.00;100100.00;5067221;28;20047;-72
2022/01/09 11:06:16;;;;;;;13.43;4.32;;;;;;;4.93;100.00;100097.34;5063840;28;20111;-72
2022/01/09 11:08:44;;;;;;;17.42;3.88;;;;;;;4.97;100.00;100099.03;5062255;28;20083;-73
2022/01/09 11:11:26;;;;;;;21.33;4.45;;;;;;;4.99;100.00;100105.16;5062394;28;20132;-74
2022/01/09 11:14:03;;;;;;;15.35;4.35;;;;;;;5.10;100.00;100106.72;5067719;28;20278;-69
2022/01/09 11:17:00;;;;;;;19.67;4.50;;;;;;;5.09;100.00;100112.88;5062350;28;20059;-68
2022/01/09 11:19:29;;;;;;;13.98;3.42;;;;;;;5.07;100.00;100112.91;5047251;28;20129;-69
2022/01/09 11:22:00;;;;;;;17.63;3.63;;;;;;;5.10;100.00;100109.34;5066429;28;20067;-70
2022/01/09 11:24:56;;;;;;;11.32;3.22;;;;;;;5.13;100.00;100120.72;5066734;28;20053;-70
2022/01/09 11:27:36;;;;;;;17.15;4.45;;;;;;;5.15;100.00;100120.69;5067336;28;20573;-73
2022/01/09 11:30:07;;;;;;;15.13;3.60;;;;;;;5.19;100.00;100123.25;5063872;28;20044;-73
2022/01/09 11:32:50;;;;;;;11.75;4.13;;;;;;;5.23;100.00;100129.34;5066261;28;20056;-73
2022/01/09 11:35:30;;;;;;;10.73;4.17;;;;;;;5.20;100.00;100129.41;5068584;28;20101;-72
2022/01/09 11:38:08;;;;;;;11.73;3.97;;;;;;;5.26;100.00;100125.75;5066524;28;20062;-69
2022/01/09 11:40:38;;;;;;;13.13;3.42;;;;;;;5.36;100.00;100129.94;5065484;28;20094;-69
2022/01/09 11:43:11;;;;;;;16.77;3.80;;;;;;;5.40;100.00;100136.94;5066892;28;20048;-70
2022/01/09 11:45:44;;;;;;;14.38;3.60;;;;;;;5.45;100.00;100136.81;5063633;28;20047;-70
2022/01/09 11:48:15;;;;;;;20.55;4.97;;;;;;;5.51;100.00;100134.88;5066207;28;20081;-70
2022/01/09 11:51:12;;;;;;;9.32;3.70;;;;;;;5.51;100.00;100141.97;5061966;28;20047;-70
2022/01/09 11:54:01;;;;;;;13.85;4.35;;;;;;;5.46;100.00;100147.34;5065808;28;20143;-71
2022/01/09 11:57:08;;;;;;;15.80;3.67;;;;;;;5.41;100.00;100154.53;5064107;28;20066;-71
2022/01/09 12:00:01;;;;;;;14.93;3.28;;;;;;;5.41;100.00;100151.88;5069112;28;20163;-71
2022/01/09 12:02:35;;;;;;;13.48;3.72;;;;;;;5.57;100.00;100165.66;5067596;28;20072;-71
2022/01/09 12:05:04;;;;;;;;;;;;;;;5.64;100.00;100169.91;5068809;28;20095;-71
2022/01/09 12:08:08;;;;;;;15.40;3.95;;;;;;;5.63;100.00;100162.84;5063632;28;20304;-71
2022/01/09 12:10:39;;;;;;;7.57;2.97;;;;;;;5.61;100.00;100173.47;5067405;28;20547;-71
2022/01/09 12:13:35;;;;;;;15.80;3.60;;;;;;;5.49;100.00;100171.09;5066179;28;20183;-72
2022/01/09 12:16:07;;;;;;;15.48;3.83;;;;;;;5.39;100.00;100175.72;5067654;28;20044;-72
2022/01/09 12:18:43;;;;;;;20.45;4.07;;;;;;;5.40;100.00;100188.06;5065026;28;20068;-72
2022/01/09 12:21:46;;;;;;;10.32;2.97;;;;;;;5.39;100.00;100180.16;5067500;28;20056;-72
2022/01/09 12:24:43;;;;;;;19.90;4.65;;;;;;;5.37;100.00;100185.47;5064737;28;20053;-72
2022/01/09 12:27:43;;;;;;;14.90;3.92;;;;;;;5.41;100.00;100188.91;5065854;28;20101;-72
2022/01/09 12:30:32;;;;;;;8.77;3.25;;;;;;;5.38;100.00;100187.22;5065429;28;20056;-73